createdAt,value
2022-08-19T00:01:58.999Z,20.00
2022-08-19T00:04:31.175Z,20.00
2022-08-19T00:06:59.659Z,20.00
2022-08-19T00:09:26.947Z,20.00
2022-08-19T00:11:56.282Z,20.00
2022-08-19T00:14:25.655Z,20.00
2022-08-19T00:16:55.192Z,20.00
2022-08-19T00:19:24.475Z,19.90
2022-08-19T00:21:52.506Z,20.00
2022-08-19T00:24:19.812Z,20.00
2022-08-19T00:26:47.468Z,20.00
2022-08-19T00:29:19.347Z,20.00
2022-08-19T00:31:47.153Z,20.00
2022-08-19T00:34:15.781Z,20.10
2022-08-19T00:36:44.375Z,20.10
2022-08-19T00:39:12.811Z,20.10
2022-08-19T00:41:41.634Z,20.10
2022-08-19T00:44:13.567Z,20.00
2022-08-19T00:46:45.289Z,20.10
2022-08-19T00:49:41.709Z,20.00
2022-08-19T00:52:25.453Z,20.00
2022-08-19T00:54:54.243Z,20.10
2022-08-19T00:57:33.589Z,20.10
2022-08-19T01:00:03.430Z,20.10
2022-08-19T01:02:33.348Z,20.10
2022-08-19T01:05:05.171Z,20.10
2022-08-19T01:07:35.720Z,20.10
2022-08-19T01:10:09.826Z,20.10
2022-08-19T01:12:37.737Z,20.10
2022-08-19T01:15:11.046Z,20.10
2022-08-19T01:17:40.751Z,20.00
2022-08-19T01:20:14.709Z,20.00
2022-08-19T01:22:48.948Z,20.00
2022-08-19T01:25:21.886Z,20.00
2022-08-19T01:27:53.489Z,20.00
2022-08-19T01:30:31.109Z,20.00
2022-08-19T01:33:00.798Z,20.00
2022-08-19T01:35:32.361Z,19.90
2022-08-19T01:38:08.617Z,19.90
2022-08-19T01:40:40.526Z,19.90
2022-08-19T01:43:07.579Z,19.80
2022-08-19T01:45:36.062Z,19.90
2022-08-19T01:48:03.794Z,19.90
2022-08-19T01:50:34.557Z,19.90
2022-08-19T01:53:06.646Z,19.90
2022-08-19T01:55:41.657Z,19.90
2022-08-19T01:58:21.550Z,19.90
2022-08-19T02:00:49.193Z,19.90
2022-08-19T02:03:16.826Z,19.90
2022-08-19T02:05:44.943Z,19.80
2022-08-19T02:08:12.435Z,19.80
2022-08-19T02:10:44.413Z,19.90
2022-08-19T02:13:12.956Z,19.90
2022-08-19T02:15:40.409Z,19.80
2022-08-19T02:18:08.243Z,19.90
2022-08-19T02:20:36.625Z,19.80
2022-08-19T02:23:03.387Z,19.80
2022-08-19T02:25:30.373Z,19.80
2022-08-19T02:27:57.653Z,19.90
2022-08-19T02:30:27.874Z,19.90
2022-08-19T02:32:54.921Z,19.90
2022-08-19T02:35:22.408Z,19.90
2022-08-19T02:38:12.580Z,19.90
2022-08-19T02:40:39.374Z,19.90
2022-08-19T02:43:09.452Z,19.90
2022-08-19T02:45:40.586Z,19.90
2022-08-19T02:48:17.937Z,19.80
2022-08-19T02:50:56.106Z,19.80
2022-08-19T02:53:26.793Z,20.30
2022-08-19T02:55:53.600Z,19.80
2022-08-19T02:58:22.915Z,19.80
2022-08-19T03:00:56.476Z,19.80
2022-08-19T03:03:24.361Z,19.80
2022-08-19T03:05:56.813Z,19.80
2022-08-19T03:08:26.685Z,19.80
2022-08-19T03:10:53.934Z,19.80
2022-08-19T03:13:21.325Z,19.80
2022-08-19T03:15:49.146Z,19.80
2022-08-19T03:18:17.941Z,19.70
2022-08-19T03:20:51.154Z,19.70
2022-08-19T03:23:18.244Z,19.80
2022-08-19T03:25:58.351Z,19.70
2022-08-19T03:28:36.247Z,19.70
2022-08-19T03:31:44.351Z,19.70
2022-08-19T03:33:55.319Z,19.70
2022-08-19T03:36:28.597Z,19.70
2022-08-19T03:39:01.249Z,19.70
2022-08-19T03:41:44.568Z,19.70
2022-08-19T03:44:17.794Z,19.60
2022-08-19T03:46:51.518Z,19.60
2022-08-19T03:49:19.930Z,19.60
2022-08-19T03:51:49.115Z,19.50
2022-08-19T03:54:20.384Z,19.50
2022-08-19T03:56:50.127Z,19.50
2022-08-19T03:59:30.757Z,19.50
2022-08-19T04:02:01.926Z,19.50
2022-08-19T04:04:29.751Z,19.50
2022-08-19T04:06:59.550Z,19.50
2022-08-19T04:09:26.808Z,19.50
2022-08-19T04:11:57.152Z,19.50
2022-08-19T04:14:30.861Z,19.50
2022-08-19T04:16:59.313Z,19.50
2022-08-19T04:19:27.019Z,19.50
2022-08-19T04:21:55.476Z,19.50
2022-08-19T04:24:24.336Z,19.50
2022-08-19T04:26:51.703Z,19.50
2022-08-19T04:29:26.215Z,19.50
2022-08-19T04:31:55.472Z,19.50
2022-08-19T04:34:25.742Z,19.50
2022-08-19T04:36:55.280Z,19.50
2022-08-19T04:39:49.630Z,19.50
2022-08-19T04:42:37.826Z,19.50
2022-08-19T04:45:12.419Z,19.50
2022-08-19T04:47:49.251Z,19.50
2022-08-19T04:50:27.522Z,19.50
2022-08-19T04:52:56.280Z,19.50
2022-08-19T04:55:23.936Z,19.50
2022-08-19T04:57:51.586Z,19.50
2022-08-19T05:00:18.531Z,19.60
2022-08-19T05:02:45.311Z,19.60
2022-08-19T05:05:13.092Z,19.60
2022-08-19T05:07:40.961Z,19.60
2022-08-19T05:10:08.614Z,19.60
2022-08-19T05:12:35.438Z,19.50
2022-08-19T05:15:09.243Z,19.50
2022-08-19T05:17:38.661Z,19.60
2022-08-19T05:20:26.758Z,19.60
2022-08-19T05:22:53.962Z,19.70
2022-08-19T05:25:22.765Z,19.70
2022-08-19T05:27:49.821Z,19.70
2022-08-19T05:30:17.810Z,19.80
2022-08-19T05:32:45.005Z,19.80
2022-08-19T05:35:12.541Z,19.80
2022-08-19T05:37:41.144Z,19.80
2022-08-19T05:40:09.908Z,19.90
2022-08-19T05:42:36.811Z,19.90
2022-08-19T05:45:05.336Z,19.90
2022-08-19T05:47:32.989Z,19.90
2022-08-19T05:50:00.441Z,19.90
2022-08-19T05:52:28.964Z,20.00
2022-08-19T05:54:57.309Z,20.00
2022-08-19T05:57:25.611Z,20.00
2022-08-19T05:59:58.090Z,20.00
2022-08-19T06:02:31.611Z,20.10
2022-08-19T06:04:58.861Z,20.20
2022-08-19T06:07:26.273Z,20.20
2022-08-19T06:09:54.409Z,20.30
2022-08-19T06:12:29.561Z,20.30
2022-08-19T06:15:00.767Z,20.30
2022-08-19T06:17:30.819Z,20.30
2022-08-19T06:19:57.783Z,20.30
2022-08-19T06:22:24.790Z,20.30
2022-08-19T06:24:54.741Z,20.30
2022-08-19T06:27:22.986Z,20.30
2022-08-19T06:29:50.307Z,20.40
2022-08-19T06:32:19.777Z,20.40
2022-08-19T06:34:47.377Z,20.40
2022-08-19T06:37:14.614Z,20.50
2022-08-19T06:39:45.846Z,20.50
2022-08-19T06:42:16.987Z,20.60
2022-08-19T06:44:49.259Z,20.60
2022-08-19T06:47:23.850Z,20.70
2022-08-19T06:50:05.371Z,20.70
2022-08-19T06:52:36.412Z,20.70
2022-08-19T06:55:06.336Z,20.70
2022-08-19T06:57:34.635Z,20.70
2022-08-19T07:00:01.980Z,20.60
2022-08-19T07:02:28.934Z,20.60
2022-08-19T07:04:58.746Z,20.60
2022-08-19T07:07:26.168Z,20.60
2022-08-19T07:09:58.984Z,20.60
2022-08-19T07:12:33.793Z,20.60
2022-08-19T07:15:04.441Z,20.50
2022-08-19T07:17:31.758Z,20.50
2022-08-19T07:20:05.505Z,20.50
2022-08-19T07:22:35.248Z,20.50
2022-08-19T07:25:04.650Z,20.50
2022-08-19T07:27:33.611Z,20.50
2022-08-19T07:30:00.929Z,20.50
2022-08-19T07:32:28.032Z,20.50
2022-08-19T07:34:56.293Z,20.50
2022-08-19T07:37:32.004Z,20.50
2022-08-19T07:40:00.909Z,20.50
2022-08-19T07:42:30.404Z,20.50
2022-08-19T07:44:58.084Z,20.50
2022-08-19T07:47:47.447Z,20.50
2022-08-19T07:50:12.755Z,20.50
2022-08-19T07:52:40.675Z,20.50
2022-08-19T07:55:39.780Z,20.50
2022-08-19T07:57:57.956Z,20.50
2022-08-19T08:00:24.964Z,20.50
2022-08-19T08:02:55.679Z,20.40
2022-08-19T08:05:44.159Z,20.40
2022-08-19T08:08:33.066Z,20.50
2022-08-19T08:11:01.483Z,20.60
2022-08-19T08:13:29.279Z,20.60
2022-08-19T08:15:57.224Z,20.70
2022-08-19T08:18:27.489Z,20.80
2022-08-19T08:20:57.052Z,20.80
2022-08-19T08:23:30.077Z,20.70
2022-08-19T08:25:59.102Z,20.70
2022-08-19T08:28:30.851Z,20.70
2022-08-19T08:30:58.657Z,20.70
2022-08-19T08:33:34.353Z,20.70
2022-08-19T08:36:09.819Z,20.70
2022-08-19T08:38:40.286Z,20.70
2022-08-19T08:41:41.902Z,20.70
2022-08-19T08:44:20.081Z,20.80
2022-08-19T08:46:56.106Z,20.80
2022-08-19T08:49:47.315Z,20.80
2022-08-19T08:52:45.255Z,20.90
2022-08-19T08:55:21.463Z,21.10
2022-08-19T08:58:03.759Z,21.10
2022-08-19T09:00:41.626Z,21.20
2022-08-19T09:03:27.804Z,21.20
2022-08-19T09:06:05.291Z,21.20
2022-08-19T09:09:04.764Z,21.20
2022-08-19T09:11:47.953Z,21.20
2022-08-19T09:14:50.662Z,21.30
2022-08-19T09:17:27.641Z,21.40
2022-08-19T09:20:05.602Z,21.40
2022-08-19T09:22:33.463Z,21.30
2022-08-19T09:25:00.968Z,21.30
2022-08-19T09:27:35.573Z,21.30
2022-08-19T09:30:19.098Z,21.30
2022-08-19T09:32:47.673Z,21.30
2022-08-19T09:35:23.333Z,21.40
2022-08-19T09:37:57.368Z,21.50
2022-08-19T09:40:31.992Z,21.50
2022-08-19T09:43:09.975Z,21.50
2022-08-19T09:45:39.842Z,21.40
2022-08-19T09:48:07.067Z,21.40
2022-08-19T09:50:35.014Z,21.40
2022-08-19T09:53:01.855Z,21.40
2022-08-19T09:55:31.568Z,21.30
2022-08-19T09:58:02.195Z,21.30
2022-08-19T10:00:29.390Z,21.20
2022-08-19T10:02:56.190Z,21.10
2022-08-19T10:05:42.313Z,21.00
2022-08-19T10:08:13.513Z,20.90
2022-08-19T10:10:46.645Z,20.90
2022-08-19T10:13:20.761Z,20.90
2022-08-19T10:15:49.427Z,20.80
2022-08-19T10:18:20.624Z,20.80
2022-08-19T10:20:51.430Z,20.80
2022-08-19T10:23:21.624Z,20.70
2022-08-19T10:25:50.478Z,20.70
2022-08-19T10:28:19.201Z,20.70
2022-08-19T10:30:48.419Z,20.70
2022-08-19T10:33:16.038Z,20.70
2022-08-19T10:36:08.417Z,20.70
2022-08-19T10:38:36.085Z,20.80
2022-08-19T10:41:17.038Z,20.70
2022-08-19T10:43:45.933Z,20.70
2022-08-19T10:46:16.445Z,20.70
2022-08-19T10:48:46.062Z,20.70
2022-08-19T10:51:32.156Z,20.70
2022-08-19T10:54:00.591Z,20.70
2022-08-19T10:56:47.604Z,20.60
2022-08-19T10:59:16.533Z,20.50
2022-08-19T11:01:46.224Z,20.50
2022-08-19T11:04:14.511Z,20.50
2022-08-19T11:06:44.338Z,20.50
2022-08-19T11:09:12.539Z,20.50
2022-08-19T11:11:42.945Z,20.50
2022-08-19T11:14:16.059Z,20.50
2022-08-19T11:16:43.722Z,20.40
2022-08-19T11:19:14.937Z,20.40
2022-08-19T11:21:45.819Z,20.40
2022-08-19T11:24:21.244Z,20.40
2022-08-19T11:26:51.381Z,20.30
2022-08-19T11:29:21.108Z,20.40
2022-08-19T11:31:50.694Z,20.40
2022-08-19T11:34:24.094Z,20.40
2022-08-19T11:36:52.411Z,20.40
2022-08-19T11:39:22.384Z,20.40
2022-08-19T11:41:49.843Z,20.40
2022-08-19T11:44:16.781Z,20.40
2022-08-19T11:46:47.325Z,20.40
2022-08-19T11:49:25.360Z,20.40
2022-08-19T11:51:53.730Z,20.40
2022-08-19T11:54:20.692Z,20.40
2022-08-19T11:56:49.872Z,20.30
2022-08-19T11:59:16.887Z,20.30
2022-08-19T12:01:44.400Z,20.30
2022-08-19T12:04:11.833Z,20.40
2022-08-19T12:06:42.072Z,20.40
2022-08-19T12:09:11.600Z,20.40
2022-08-19T12:11:41.325Z,20.40
2022-08-19T12:14:14.974Z,20.40
2022-08-19T12:16:50.420Z,20.40
2022-08-19T12:19:21.916Z,20.50
2022-08-19T12:21:50.944Z,20.40
2022-08-19T12:24:23.889Z,20.40
2022-08-19T12:26:53.749Z,20.40
2022-08-19T12:29:23.942Z,20.40
2022-08-19T12:31:52.063Z,20.40
2022-08-19T12:34:20.863Z,20.40
2022-08-19T12:36:50.055Z,20.50
2022-08-19T12:39:16.900Z,20.50
2022-08-19T12:41:51.382Z,20.60
2022-08-19T12:44:21.579Z,20.60
2022-08-19T12:46:57.931Z,20.70
2022-08-19T12:49:47.126Z,20.70
2022-08-19T12:52:16.504Z,20.70
2022-08-19T12:54:48.365Z,20.70
2022-08-19T12:57:32.882Z,20.70
2022-08-19T13:00:17.324Z,20.70
2022-08-19T13:02:50.549Z,20.70
2022-08-19T13:05:26.906Z,20.70
2022-08-19T13:07:56.881Z,20.70
2022-08-19T13:10:28.643Z,20.70
2022-08-19T13:12:56.578Z,20.80
2022-08-19T13:15:24.596Z,20.80
2022-08-19T13:17:54.711Z,20.90
2022-08-19T13:20:22.468Z,20.90
2022-08-19T13:22:49.744Z,20.90
2022-08-19T13:25:20.077Z,20.90
2022-08-19T13:27:50.035Z,20.90
2022-08-19T13:30:38.900Z,20.90
2022-08-19T13:33:12.881Z,20.80
2022-08-19T13:35:42.613Z,20.80
2022-08-19T13:38:11.785Z,20.90
2022-08-19T13:40:41.206Z,20.90
2022-08-19T13:43:12.454Z,20.90
2022-08-19T13:45:56.964Z,20.80
2022-08-19T13:48:27.666Z,20.80
2022-08-19T13:50:54.967Z,20.70
2022-08-19T13:53:22.011Z,20.70
2022-08-19T13:55:49.520Z,20.70
2022-08-19T13:58:16.307Z,20.60
2022-08-19T14:00:46.468Z,20.60
2022-08-19T14:03:13.394Z,20.60
2022-08-19T14:05:40.350Z,20.60
2022-08-19T14:08:07.330Z,20.60
2022-08-19T14:10:34.401Z,20.60
2022-08-19T14:13:04.400Z,20.60
2022-08-19T14:15:32.154Z,20.60
2022-08-19T14:17:59.326Z,20.60
2022-08-19T14:20:27.067Z,20.50
2022-08-19T14:22:55.590Z,20.50
2022-08-19T14:25:29.683Z,20.50
2022-08-19T14:27:57.758Z,20.40
2022-08-19T14:30:29.895Z,20.40
2022-08-19T14:32:59.159Z,20.40
2022-08-19T14:35:28.757Z,20.40
2022-08-19T14:37:57.014Z,20.30
2022-08-19T14:40:28.026Z,20.30
2022-08-19T14:43:04.613Z,20.20
2022-08-19T14:45:35.730Z,20.10
2022-08-19T14:48:05.459Z,20.10
2022-08-19T14:50:34.963Z,20.10
2022-08-19T14:53:12.774Z,20.00
2022-08-19T14:55:47.159Z,20.00
2022-08-19T14:58:29.266Z,20.00
2022-08-19T15:01:00.085Z,20.00
2022-08-19T15:03:27.486Z,20.00
2022-08-19T15:05:54.655Z,20.00
2022-08-19T15:08:23.359Z,20.00
2022-08-19T15:10:50.139Z,19.90
2022-08-19T15:13:17.383Z,19.90
2022-08-19T15:15:44.134Z,19.90
2022-08-19T15:18:13.154Z,19.80
2022-08-19T15:20:40.818Z,19.80
2022-08-19T15:23:09.117Z,19.80
2022-08-19T15:25:36.343Z,19.70
2022-08-19T15:28:04.269Z,19.70
2022-08-19T15:30:31.239Z,19.70
2022-08-19T15:32:59.005Z,19.60
2022-08-19T15:35:26.774Z,19.60
2022-08-19T15:37:56.483Z,19.60
2022-08-19T15:40:26.036Z,19.50
2022-08-19T15:42:53.940Z,19.50
2022-08-19T15:45:22.288Z,19.50
2022-08-19T15:47:49.527Z,19.50
2022-08-19T15:50:23.705Z,19.40
2022-08-19T15:52:58.257Z,19.40
2022-08-19T15:55:36.026Z,19.40
2022-08-19T15:58:27.923Z,19.30
2022-08-19T16:01:22.841Z,19.30
2022-08-19T16:04:14.768Z,19.30
2022-08-19T16:07:03.410Z,19.30
2022-08-19T16:09:32.579Z,19.30
2022-08-19T16:12:03.913Z,19.30
2022-08-19T16:14:33.829Z,19.30
2022-08-19T16:17:01.823Z,19.30
2022-08-19T16:19:28.557Z,19.30
2022-08-19T16:21:57.209Z,19.20
2022-08-19T16:24:27.773Z,19.20
2022-08-19T16:26:55.835Z,19.20
2022-08-19T16:29:33.901Z,19.20
2022-08-19T16:32:04.693Z,19.10
2022-08-19T16:34:33.718Z,19.10
2022-08-19T16:37:00.807Z,19.10
2022-08-19T16:39:27.596Z,19.00
2022-08-19T16:41:54.394Z,19.00
2022-08-19T16:44:21.443Z,18.90
2022-08-19T16:46:58.444Z,19.00
2022-08-19T16:49:53.817Z,18.90
2022-08-19T16:52:16.294Z,18.90
2022-08-19T16:54:44.622Z,18.80
2022-08-19T16:57:12.913Z,18.80
2022-08-19T16:59:48.470Z,18.70
2022-08-19T17:02:19.210Z,18.70
2022-08-19T17:04:57.612Z,18.70
2022-08-19T17:07:33.524Z,18.60
2022-08-19T17:10:02.751Z,18.60
2022-08-19T17:12:32.248Z,18.60
2022-08-19T17:15:02.363Z,18.60
2022-08-19T17:17:31.015Z,18.60
2022-08-19T17:20:00.489Z,18.60
2022-08-19T17:22:27.589Z,18.50
2022-08-19T17:24:56.382Z,18.50
2022-08-19T17:27:26.645Z,18.50
2022-08-19T17:29:53.471Z,18.50
2022-08-19T17:32:25.146Z,18.50
2022-08-19T17:34:54.010Z,18.50
2022-08-19T17:37:20.993Z,18.40
2022-08-19T17:39:47.779Z,18.40
2022-08-19T17:42:14.657Z,18.40
2022-08-19T17:44:42.038Z,18.40
2022-08-19T17:47:08.866Z,18.40
2022-08-19T17:49:37.423Z,18.30
2022-08-19T17:52:09.447Z,18.30
2022-08-19T17:54:36.830Z,18.30
2022-08-19T17:57:03.802Z,18.30
2022-08-19T17:59:30.650Z,18.20
2022-08-19T18:02:00.012Z,18.20
2022-08-19T18:04:29.331Z,18.20
2022-08-19T18:06:56.470Z,18.10
2022-08-19T18:09:28.522Z,18.20
2022-08-19T18:11:58.901Z,18.10
2022-08-19T18:14:33.740Z,18.10
2022-08-19T18:17:08.889Z,18.10
2022-08-19T18:19:41.017Z,18.10
2022-08-19T18:22:36.335Z,18.00
2022-08-19T18:25:09.787Z,18.10
2022-08-19T18:27:36.825Z,18.00
2022-08-19T18:30:07.212Z,18.00
2022-08-19T18:32:38.446Z,18.00
2022-08-19T18:35:16.265Z,18.00
2022-08-19T18:37:44.913Z,18.00
2022-08-19T18:40:36.637Z,18.00
2022-08-19T18:43:16.902Z,18.00
2022-08-19T18:46:03.056Z,18.00
2022-08-19T18:48:49.421Z,18.00
2022-08-19T18:51:17.709Z,18.00
2022-08-19T18:53:47.116Z,18.00
2022-08-19T18:56:19.553Z,18.00
2022-08-19T18:58:47.066Z,17.90
2022-08-19T19:01:34.333Z,17.90
2022-08-19T19:04:13.187Z,17.90
2022-08-19T19:06:42.529Z,17.90
2022-08-19T19:09:13.864Z,17.90
2022-08-19T19:11:44.758Z,17.90
2022-08-19T19:14:27.608Z,17.80
2022-08-19T19:17:06.576Z,17.80
2022-08-19T19:19:34.598Z,17.80
2022-08-19T19:22:04.601Z,17.80
2022-08-19T19:24:33.421Z,17.80
2022-08-19T19:27:06.758Z,17.70
2022-08-19T19:29:36.528Z,17.70
2022-08-19T19:32:10.810Z,17.70
2022-08-19T19:34:39.223Z,17.70
2022-08-19T19:37:06.432Z,17.70
2022-08-19T19:39:46.267Z,17.70
2022-08-19T19:42:20.120Z,17.70
2022-08-19T19:44:51.759Z,17.60
2022-08-19T19:47:19.805Z,17.60
2022-08-19T19:50:13.377Z,17.60
2022-08-19T19:52:40.507Z,17.70
2022-08-19T19:55:09.321Z,17.60
2022-08-19T19:57:36.093Z,17.60
2022-08-19T20:00:04.350Z,17.60
2022-08-19T20:02:31.117Z,17.60
2022-08-19T20:04:58.784Z,17.60
2022-08-19T20:07:46.103Z,17.60
2022-08-19T20:10:13.651Z,17.60
2022-08-19T20:12:40.496Z,17.60
2022-08-19T20:15:08.941Z,17.60
2022-08-19T20:17:41.134Z,17.60
2022-08-19T20:20:14.957Z,17.60
2022-08-19T20:22:43.152Z,17.50
2022-08-19T20:25:18.978Z,17.50
2022-08-19T20:27:49.963Z,17.50
2022-08-19T20:30:20.864Z,17.50
2022-08-19T20:32:50.815Z,17.50
2022-08-19T20:35:21.353Z,17.50
2022-08-19T20:37:52.881Z,17.50
2022-08-19T20:40:22.903Z,17.50
2022-08-19T20:42:50.542Z,17.50
2022-08-19T20:45:33.134Z,17.40
2022-08-19T20:48:03.096Z,17.50
2022-08-19T20:50:35.180Z,17.40
2022-08-19T20:53:10.340Z,17.40
2022-08-19T20:55:37.077Z,17.40
2022-08-19T20:58:04.138Z,17.40
2022-08-19T21:00:31.211Z,17.40
2022-08-19T21:02:58.012Z,17.40
2022-08-19T21:05:30.236Z,17.40
2022-08-19T21:07:57.834Z,17.40
2022-08-19T21:10:26.082Z,17.40
2022-08-19T21:12:53.445Z,17.40
2022-08-19T21:15:20.259Z,17.40
2022-08-19T21:17:48.598Z,17.40
2022-08-19T21:20:16.557Z,17.40
2022-08-19T21:22:49.405Z,17.40
2022-08-19T21:25:18.083Z,17.40
2022-08-19T21:27:44.854Z,17.40
2022-08-19T21:30:12.692Z,17.40
2022-08-19T21:32:39.581Z,17.30
2022-08-19T21:35:06.899Z,17.30
2022-08-19T21:37:34.771Z,17.30
2022-08-19T21:40:01.619Z,17.30
2022-08-19T21:42:28.485Z,17.40
2022-08-19T21:44:55.257Z,17.30
2022-08-19T21:47:22.070Z,17.30
2022-08-19T21:49:49.024Z,17.30
2022-08-19T21:52:27.676Z,17.30
2022-08-19T21:54:55.602Z,17.30
2022-08-19T21:57:24.489Z,17.20
2022-08-19T21:59:52.973Z,17.20
2022-08-19T22:02:21.477Z,17.20
2022-08-19T22:04:51.546Z,17.20
2022-08-19T22:07:21.423Z,17.20
2022-08-19T22:09:50.790Z,17.20
2022-08-19T22:12:30.226Z,17.30
2022-08-19T22:14:58.768Z,17.30
2022-08-19T22:17:27.429Z,17.30
2022-08-19T22:19:55.909Z,17.30
2022-08-19T22:22:31.252Z,17.30
2022-08-19T22:25:11.540Z,17.20
2022-08-19T22:27:38.655Z,17.20
2022-08-19T22:30:15.000Z,17.20
2022-08-19T22:32:56.201Z,17.20
2022-08-19T22:35:25.332Z,17.20
2022-08-19T22:37:52.231Z,17.20
2022-08-19T22:40:20.061Z,17.20
2022-08-19T22:42:48.530Z,17.20
2022-08-19T22:45:17.400Z,17.20
2022-08-19T22:47:45.306Z,17.30
2022-08-19T22:50:13.928Z,17.20
2022-08-19T22:52:51.694Z,17.20
2022-08-19T22:55:19.225Z,17.20
2022-08-19T22:57:46.001Z,17.20
2022-08-19T23:00:14.506Z,17.20
2022-08-19T23:02:51.704Z,17.20
2022-08-19T23:05:23.373Z,17.20
2022-08-19T23:07:52.568Z,17.20
2022-08-19T23:10:26.938Z,17.20
2022-08-19T23:12:59.276Z,17.20
2022-08-19T23:15:31.797Z,17.20
2022-08-19T23:18:02.459Z,17.20
2022-08-19T23:20:35.123Z,17.20
2022-08-19T23:23:06.550Z,17.20
2022-08-19T23:25:36.476Z,17.20
2022-08-19T23:28:23.951Z,17.20
2022-08-19T23:30:52.944Z,17.30
2022-08-19T23:33:51.634Z,17.20
2022-08-19T23:36:20.435Z,17.30
2022-08-19T23:38:51.858Z,17.20
2022-08-19T23:41:23.032Z,17.20
2022-08-19T23:43:51.483Z,17.20
2022-08-19T23:46:28.015Z,17.20
2022-08-19T23:48:56.714Z,17.20
2022-08-19T23:51:23.826Z,17.20
2022-08-19T23:53:50.658Z,17.10
2022-08-19T23:56:17.454Z,17.20
2022-08-19T23:58:44.277Z,17.10
